Time,TemperatureF,DewpointF,PressureIn,WindDirection,WindDirectionDegrees,WindSpeedMPH,WindSpeedGustMPH,Humidity,HourlyPrecipIn,Conditions,Clouds,dailyrainin,SoftwareType,DateUTC
2013-11-11 00:00:00,19.2,11.3,30.34,North,9,4.0,4.0,71,0.00,,,0.00,Wunderground v.1.15,2013-11-11 06:00:00,
2013-11-11 00:10:00,19.5,10.0,30.34,North,360,5.0,8.0,66,0.00,,,0.00,Wunderground v.1.15,2013-11-11 06:10:00,
2013-11-11 00:20:00,19.7,9.1,30.34,NNE,14,4.0,6.0,63,0.00,,,0.00,Wunderground v.1.15,2013-11-11 06:20:00,
2013-11-11 00:25:00,19.8,8.5,30.34,North,355,5.0,6.0,61,0.00,,,0.00,Wunderground v.1.15,2013-11-11 06:25:00,
2013-11-11 00:30:00,19.8,7.8,30.34,NE,34,5.0,9.0,59,0.00,,,0.00,Wunderground v.1.15,2013-11-11 06:30:00,
2013-11-11 00:35:00,19.9,7.1,30.36,NE,38,5.0,9.0,57,0.00,,,0.00,Wunderground v.1.15,2013-11-11 06:35:00,
2013-11-11 00:40:00,19.9,7.5,30.35,NNW,341,5.0,6.0,58,0.00,,,0.00,Wunderground v.1.15,2013-11-11 06:40:00,
2013-11-11 00:45:00,19.9,6.7,30.36,NNW,347,5.0,6.0,56,0.00,,,0.00,Wunderground v.1.15,2013-11-11 06:45:00,
2013-11-11 00:55:00,19.8,6.2,30.36,NE,50,5.0,5.0,55,0.00,,,0.00,Wunderground v.1.15,2013-11-11 06:55:00,
2013-11-11 01:00:00,19.7,5.7,30.36,North,11,5.0,9.0,54,0.00,,,0.00,Wunderground v.1.15,2013-11-11 07:00:00,
2013-11-11 01:10:00,19.7,6.5,30.37,North,5,6.0,6.0,56,0.00,,,0.00,Wunderground v.1.15,2013-11-11 07:10:00,
2013-11-11 01:15:00,19.7,6.9,30.36,NNW,344,5.0,12.0,57,0.00,,,0.00,Wunderground v.1.15,2013-11-11 07:15:00,
2013-11-11 01:25:00,19.4,6.2,30.36,NNE,19,6.0,7.0,56,0.00,,,0.00,Wunderground v.1.15,2013-11-11 07:25:00,
2013-11-11 01:30:00,19.3,5.3,30.37,NE,40,6.0,6.0,54,0.00,,,0.00,Wunderground v.1.15,2013-11-11 07:30:00,
2013-11-11 01:35:00,19.3,4.9,30.38,North,5,6.0,10.0,53,0.00,,,0.00,Wunderground v.1.15,2013-11-11 07:35:00,
2013-11-11 01:40:00,19.2,4.4,30.38,NNW,347,6.0,7.0,52,0.00,,,0.00,Wunderground v.1.15,2013-11-11 07:40:00,
2013-11-11 01:45:00,19.1,3.9,30.38,North,355,6.0,8.0,51,0.00,,,0.00,Wunderground v.1.15,2013-11-11 07:45:00,
2013-11-11 01:50:00,19.1,3.9,30.38,NNE,14,5.0,5.0,51,0.00,,,0.00,Wunderground v.1.15,2013-11-11 07:50:00,
2013-11-11 02:00:00,19.1,4.3,30.38,North,360,5.0,5.0,52,0.00,,,0.00,Wunderground v.1.15,2013-11-11 08:00:00,
2013-11-11 02:10:00,18.8,3.2,30.38,North,5,5.0,5.0,50,0.00,,,0.00,Wunderground v.1.15,2013-11-11 08:10:00,
2013-11-11 02:15:00,18.7,3.1,30.39,North,360,6.0,10.0,50,0.00,,,0.00,Wunderground v.1.15,2013-11-11 08:15:00,
2013-11-11 02:20:00,18.6,3.4,30.39,North,360,6.0,6.0,51,0.00,,,0.00,Wunderground v.1.15,2013-11-11 08:20:00,
2013-11-11 02:30:00,18.5,3.4,30.40,North,9,5.0,10.0,51,0.00,,,0.00,Wunderground v.1.15,2013-11-11 08:30:00,
2013-11-11 02:35:00,18.4,2.8,30.40,NNW,331,5.0,10.0,50,0.00,,,0.00,Wunderground v.1.15,2013-11-11 08:35:00,
2013-11-11 02:40:00,18.3,2.7,30.40,North,11,6.0,9.0,50,0.00,,,0.00,Wunderground v.1.15,2013-11-11 08:40:00,
2013-11-11 02:45:00,18.2,2.2,30.40,North,11,6.0,9.0,49,0.00,,,0.00,Wunderground v.1.15,2013-11-11 08:45:00,
2013-11-11 02:50:00,18.2,3.1,30.40,NNW,344,5.0,9.0,51,0.00,,,0.00,Wunderground v.1.15,2013-11-11 08:50:00,
2013-11-11 02:55:00,18.1,3.4,30.41,NNW,341,5.0,9.0,52,0.00,,,0.00,Wunderground v.1.15,2013-11-11 08:55:00,
2013-11-11 03:00:00,18.0,4.1,30.41,NNE,16,5.0,6.0,54,0.00,,,0.00,Wunderground v.1.15,2013-11-11 09:00:00,
2013-11-11 03:10:00,17.8,4.3,30.42,NNE,19,5.0,5.0,55,0.00,,,0.00,Wunderground v.1.15,2013-11-11 09:10:00,
2013-11-11 03:15:00,17.8,4.3,30.41,NNW,348,5.0,9.0,55,0.00,,,0.00,Wunderground v.1.15,2013-11-11 09:15:00,
2013-11-11 03:20:00,17.7,4.6,30.41,North,5,5.0,5.0,56,0.00,,,0.00,Wunderground v.1.15,2013-11-11 09:20:00,
2013-11-11 03:25:00,17.6,4.5,30.41,North,5,5.0,5.0,56,0.00,,,0.00,Wunderground v.1.15,2013-11-11 09:25:00,
2013-11-11 03:30:00,17.4,4.7,30.42,North,5,5.0,9.0,57,0.00,,,0.00,Wunderground v.1.15,2013-11-11 09:30:00,
2013-11-11 03:40:00,17.3,5.0,30.42,North,355,6.0,6.0,58,0.00,,,0.00,Wunderground v.1.15,2013-11-11 09:40:00,
2013-11-11 03:45:00,17.2,5.3,30.42,NNW,329,5.0,6.0,59,0.00,,,0.00,Wunderground v.1.15,2013-11-11 09:45:00,
2013-11-11 03:50:00,17.1,4.8,30.42,North,355,5.0,5.0,58,0.00,,,0.00,Wunderground v.1.15,2013-11-11 09:50:00,
2013-11-11 03:55:00,17.0,5.1,30.43,NNE,23,5.0,6.0,59,0.00,,,0.00,Wunderground v.1.15,2013-11-11 09:55:00,
2013-11-11 04:00:00,17.0,5.5,30.43,North,360,4.0,7.0,60,0.00,,,0.00,Wunderground v.1.15,2013-11-11 10:00:00,
2013-11-11 04:10:00,16.8,5.3,30.44,North,355,4.0,4.0,60,0.00,,,0.00,Wunderground v.1.15,2013-11-11 10:10:00,
2013-11-11 04:15:00,16.7,5.2,30.44,North,9,4.0,4.0,60,0.00,,,0.00,Wunderground v.1.15,2013-11-11 10:15:00,
2013-11-11 04:20:00,16.5,5.0,30.44,North,350,5.0,5.0,60,0.00,,,0.00,Wunderground v.1.15,2013-11-11 10:20:00,
2013-11-11 04:30:00,16.1,5.0,30.45,North,360,5.0,10.0,61,0.00,,,0.00,Wunderground v.1.15,2013-11-11 10:30:00,
2013-11-11 04:35:00,16.0,4.5,30.45,NNE,12,5.0,10.0,60,0.00,,,0.00,Wunderground v.1.15,2013-11-11 10:35:00,
2013-11-11 04:45:00,15.8,5.1,30.45,NNW,340,5.0,9.0,62,0.00,,,0.00,Wunderground v.1.15,2013-11-11 10:45:00,
2013-11-11 04:50:00,15.7,5.0,30.46,North,11,4.0,11.0,62,0.00,,,0.00,Wunderground v.1.15,2013-11-11 10:50:00,
2013-11-11 04:55:00,15.5,5.1,30.46,North,349,5.0,11.0,63,0.00,,,0.00,Wunderground v.1.15,2013-11-11 10:55:00,
2013-11-11 05:00:00,15.4,5.0,30.46,NNE,33,5.0,5.0,63,0.00,,,0.00,Wunderground v.1.15,2013-11-11 11:00:00,
2013-11-11 05:10:00,15.2,5.2,30.47,North,360,4.0,5.0,64,0.00,,,0.00,Wunderground v.1.15,2013-11-11 11:10:00,
2013-11-11 05:15:00,15.1,5.1,30.47,NNE,16,4.0,5.0,64,0.00,,,0.00,Wunderground v.1.15,2013-11-11 11:15:00,
2013-11-11 05:20:00,15.1,5.4,30.48,NNW,346,3.0,5.0,65,0.00,,,0.00,Wunderground v.1.15,2013-11-11 11:20:00,
2013-11-11 05:25:00,15.0,6.0,30.48,North,355,3.0,7.0,67,0.00,,,0.00,Wunderground v.1.15,2013-11-11 11:25:00,
2013-11-11 05:30:00,15.0,6.3,30.48,NNE,19,3.0,3.0,68,0.00,,,0.00,Wunderground v.1.15,2013-11-11 11:30:00,
2013-11-11 05:35:00,14.9,6.2,30.48,North,350,4.0,4.0,68,0.00,,,0.00,Wunderground v.1.15,2013-11-11 11:35:00,
2013-11-11 05:45:00,14.6,6.0,30.48,North,355,4.0,7.0,68,0.00,,,0.00,Wunderground v.1.15,2013-11-11 11:45:00,
2013-11-11 05:55:00,14.2,5.2,30.49,NNE,24,4.0,4.0,67,0.00,,,0.00,Wunderground v.1.15,2013-11-11 11:55:00,
2013-11-11 06:00:00,14.0,5.4,30.49,NNW,348,4.0,4.0,68,0.00,,,0.00,Wunderground v.1.15,2013-11-11 12:00:00,
2013-11-11 06:10:00,13.7,5.1,30.50,North,355,4.0,4.0,68,0.00,,,0.00,Wunderground v.1.15,2013-11-11 12:10:00,
2013-11-11 06:15:00,13.6,5.0,30.50,NNW,342,4.0,4.0,68,0.00,,,0.00,Wunderground v.1.15,2013-11-11 12:15:00,
2013-11-11 06:20:00,13.4,4.8,30.50,NE,49,4.0,5.0,68,0.00,,,0.00,Wunderground v.1.15,2013-11-11 12:20:00,
2013-11-11 06:25:00,13.3,4.7,30.51,NW,319,4.0,5.0,68,0.00,,,0.00,Wunderground v.1.15,2013-11-11 12:25:00,
2013-11-11 06:30:00,13.2,4.9,30.51,NNW,346,4.0,4.0,69,0.00,,,0.00,Wunderground v.1.15,2013-11-11 12:30:00,
2013-11-11 06:35:00,13.1,4.8,30.51,North,360,4.0,4.0,69,0.00,,,0.00,Wunderground v.1.15,2013-11-11 12:35:00,
2013-11-11 06:45:00,12.9,5.0,30.52,NNW,341,4.0,9.0,70,0.00,,,0.00,Wunderground v.1.15,2013-11-11 12:45:00,
2013-11-11 06:50:00,12.8,4.5,30.52,North,360,4.0,4.0,69,0.00,,,0.00,Wunderground v.1.15,2013-11-11 12:50:00,
2013-11-11 06:55:00,12.6,4.7,30.52,NNW,341,4.0,7.0,70,0.00,,,0.00,Wunderground v.1.15,2013-11-11 12:55:00,
2013-11-11 07:00:00,12.3,4.7,30.53,NNE,14,4.0,4.0,71,0.00,,,0.00,Wunderground v.1.15,2013-11-11 13:00:00,
2013-11-11 07:10:00,12.0,4.7,30.54,North,355,2.0,3.0,72,0.00,,,0.00,Wunderground v.1.15,2013-11-11 13:10:00,
2013-11-11 07:15:00,11.8,4.8,30.54,North,350,2.0,3.0,73,0.00,,,0.00,Wunderground v.1.15,2013-11-11 13:15:00,
2013-11-11 07:20:00,11.6,4.9,30.55,North,349,3.0,3.0,74,0.00,,,0.00,Wunderground v.1.15,2013-11-11 13:20:00,
2013-11-11 07:25:00,11.4,5.0,30.55,North,355,3.0,7.0,75,0.00,,,0.00,Wunderground v.1.15,2013-11-11 13:25:00,
2013-11-11 07:30:00,11.3,4.9,30.55,NNW,335,3.0,3.0,75,0.00,,,0.00,Wunderground v.1.15,2013-11-11 13:30:00,
2013-11-11 07:40:00,10.9,4.8,30.56,North,5,3.0,3.0,76,0.00,,,0.00,Wunderground v.1.15,2013-11-11 13:40:00,
2013-11-11 07:45:00,10.8,4.7,30.56,North,355,3.0,4.0,76,0.00,,,0.00,Wunderground v.1.15,2013-11-11 13:45:00,
2013-11-11 07:50:00,10.6,4.5,30.56,NNW,340,3.0,3.0,76,0.00,,,0.00,Wunderground v.1.15,2013-11-11 13:50:00,
2013-11-11 07:55:00,10.5,4.4,30.57,NNW,344,3.0,3.0,76,0.00,,,0.00,Wunderground v.1.15,2013-11-11 13:55:00,
2013-11-11 08:00:00,10.4,4.6,30.57,NNW,346,3.0,3.0,77,0.00,,,0.00,Wunderground v.1.15,2013-11-11 14:00:00,
2013-11-11 08:10:00,10.2,4.4,30.57,NNW,336,4.0,5.0,77,0.00,,,0.00,Wunderground v.1.15,2013-11-11 14:10:00,
2013-11-11 08:15:00,10.1,4.3,30.57,North,355,3.0,5.0,77,0.00,,,0.00,Wunderground v.1.15,2013-11-11 14:15:00,
2013-11-11 08:20:00,10.1,4.6,30.58,North,355,3.0,3.0,78,0.00,,,0.00,Wunderground v.1.15,2013-11-11 14:20:00,
2013-11-11 08:25:00,10.2,4.7,30.58,North,10,3.0,3.0,78,0.00,,,0.00,Wunderground v.1.15,2013-11-11 14:25:00,
2013-11-11 08:30:00,10.2,4.4,30.59,NNW,348,3.0,3.0,77,0.00,,,0.00,Wunderground v.1.15,2013-11-11 14:30:00,
2013-11-11 08:40:00,9.9,4.1,30.60,North,355,3.0,3.0,77,0.00,,,0.00,Wunderground v.1.15,2013-11-11 14:40:00,
2013-11-11 08:45:00,9.8,4.0,30.60,NNW,348,3.0,3.0,77,0.00,,,0.00,Wunderground v.1.15,2013-11-11 14:45:00,
2013-11-11 08:50:00,9.6,3.8,30.60,North,355,3.0,6.0,77,0.00,,,0.00,Wunderground v.1.15,2013-11-11 14:50:00,
2013-11-11 08:55:00,9.4,3.6,30.61,NW,325,3.0,9.0,77,0.00,,,0.00,Wunderground v.1.15,2013-11-11 14:55:00,
2013-11-11 09:00:00,9.3,3.8,30.61,North,360,3.0,3.0,78,0.00,,,0.00,Wunderground v.1.15,2013-11-11 15:00:00,
2013-11-11 09:10:00,9.9,4.4,30.61,North,5,3.0,3.0,78,0.00,,,0.00,Wunderground v.1.15,2013-11-11 15:10:00,
2013-11-11 09:15:00,10.4,4.9,30.62,NNW,329,3.0,4.0,78,0.00,,,0.00,Wunderground v.1.15,2013-11-11 15:15:00,
2013-11-11 09:20:00,10.9,4.8,30.62,NNW,330,3.0,3.0,76,0.00,,,0.00,Wunderground v.1.15,2013-11-11 15:20:00,
2013-11-11 09:30:00,11.4,5.0,30.62,North,360,4.0,4.0,75,0.00,,,0.00,Wunderground v.1.15,2013-11-11 15:30:00,
2013-11-11 09:35:00,11.8,5.1,30.63,NNW,346,4.0,4.0,74,0.00,,,0.00,Wunderground v.1.15,2013-11-11 15:35:00,
2013-11-11 09:40:00,12.1,5.1,30.63,North,5,4.0,9.0,73,0.00,,,0.00,Wunderground v.1.15,2013-11-11 15:40:00,
2013-11-11 09:50:00,12.4,4.8,30.63,NNE,24,4.0,4.0,71,0.00,,,0.00,Wunderground v.1.15,2013-11-11 15:50:00,
2013-11-11 09:55:00,12.8,4.9,30.63,NNW,327,4.0,4.0,70,0.00,,,0.00,Wunderground v.1.15,2013-11-11 15:55:00,
2013-11-11 10:00:00,12.9,5.0,30.62,North,355,4.0,4.0,70,0.00,,,0.00,Wunderground v.1.15,2013-11-11 16:00:00,
2013-11-11 10:10:00,13.4,5.1,30.63,NNW,344,3.0,3.0,69,0.00,,,0.00,Wunderground v.1.15,2013-11-11 16:10:00,
2013-11-11 10:20:00,13.5,4.9,30.63,North,360,4.0,4.0,68,0.00,,,0.00,Wunderground v.1.15,2013-11-11 16:20:00,
2013-11-11 10:25:00,13.7,4.8,30.63,North,355,3.0,4.0,67,0.00,,,0.00,Wunderground v.1.15,2013-11-11 16:25:00,
2013-11-11 10:30:00,13.9,4.6,30.64,North,360,4.0,4.0,66,0.00,,,0.00,Wunderground v.1.15,2013-11-11 16:30:00,
2013-11-11 10:40:00,14.3,4.3,30.64,North,355,4.0,4.0,64,0.00,,,0.00,Wunderground v.1.15,2013-11-11 16:40:00,
2013-11-11 10:45:00,14.7,4.7,30.64,North,355,3.0,4.0,64,0.00,,,0.00,Wunderground v.1.15,2013-11-11 16:45:00,
2013-11-11 10:50:00,14.8,4.5,30.65,NNE,19,3.0,3.0,63,0.00,,,0.00,Wunderground v.1.15,2013-11-11 16:50:00,
2013-11-11 10:55:00,14.8,4.1,30.65,North,355,4.0,4.0,62,0.00,,,0.00,Wunderground v.1.15,2013-11-11 16:55:00,
2013-11-11 11:00:00,15.0,4.3,30.65,NNW,327,4.0,4.0,62,0.00,,,0.00,Wunderground v.1.15,2013-11-11 17:00:00,
2013-11-11 11:10:00,15.2,4.9,30.65,NNW,342,4.0,4.0,63,0.00,,,0.00,Wunderground v.1.15,2013-11-11 17:10:00,
2013-11-11 11:15:00,15.3,4.2,30.65,NNW,329,3.0,6.0,61,0.00,,,0.00,Wunderground v.1.15,2013-11-11 17:15:00,
2013-11-11 11:25:00,15.3,3.5,30.65,NW,318,3.0,3.0,59,0.00,,,0.00,Wunderground v.1.15,2013-11-11 17:25:00,
2013-11-11 11:30:00,15.3,3.9,30.65,NNW,340,3.0,3.0,60,0.00,,,0.00,Wunderground v.1.15,2013-11-11 17:30:00,
2013-11-11 11:35:00,15.7,3.5,30.65,NNW,329,3.0,3.0,58,0.00,,,0.00,Wunderground v.1.15,2013-11-11 17:35:00,
2013-11-11 11:40:00,15.6,3.1,30.65,NNW,331,3.0,6.0,57,0.00,,,0.00,Wunderground v.1.15,2013-11-11 17:40:00,
2013-11-11 11:50:00,16.4,3.4,30.65,NW,319,3.0,5.0,56,0.00,,,0.00,Wunderground v.1.15,2013-11-11 17:50:00,
2013-11-11 11:55:00,16.4,3.4,30.65,NNW,342,4.0,5.0,56,0.00,,,0.00,Wunderground v.1.15,2013-11-11 17:55:00,
2013-11-11 12:00:00,16.6,3.6,30.65,North,349,4.0,4.0,56,0.00,,,0.00,Wunderground v.1.15,2013-11-11 18:00:00,
2013-11-11 12:10:00,17.0,2.8,30.66,NNW,340,4.0,9.0,53,0.00,,,0.00,Wunderground v.1.15,2013-11-11 18:10:00,
2013-11-11 12:20:00,17.1,2.5,30.66,NW,310,4.0,4.0,52,0.00,,,0.00,Wunderground v.1.15,2013-11-11 18:20:00,
2013-11-11 12:25:00,17.2,2.6,30.66,NNW,342,4.0,9.0,52,0.00,,,0.00,Wunderground v.1.15,2013-11-11 18:25:00,
2013-11-11 12:30:00,17.5,2.4,30.66,North,355,4.0,6.0,51,0.00,,,0.00,Wunderground v.1.15,2013-11-11 18:30:00,
2013-11-11 12:35:00,17.6,1.7,30.66,NNW,329,4.0,6.0,49,0.00,,,0.00,Wunderground v.1.15,2013-11-11 18:35:00,
2013-11-11 12:45:00,17.8,2.3,30.66,NW,311,4.0,4.0,50,0.00,,,0.00,Wunderground v.1.15,2013-11-11 18:45:00,
2013-11-11 12:50:00,17.9,1.9,30.66,NNW,338,3.0,5.0,49,0.00,,,0.00,Wunderground v.1.15,2013-11-11 18:50:00,
2013-11-11 12:55:00,17.9,1.9,30.66,NE,36,4.0,5.0,49,0.00,,,0.00,Wunderground v.1.15,2013-11-11 18:55:00,
2013-11-11 13:00:00,18.0,1.6,30.66,WNW,303,4.0,5.0,48,0.00,,,0.00,Wunderground v.1.15,2013-11-11 19:00:00,
2013-11-11 13:10:00,18.2,1.3,30.66,NW,319,4.0,4.0,47,0.00,,,0.00,Wunderground v.1.15,2013-11-11 19:10:00,
2013-11-11 13:15:00,18.4,1.5,30.66,NNE,15,3.0,4.0,47,0.00,,,0.00,Wunderground v.1.15,2013-11-11 19:15:00,
2013-11-11 13:20:00,18.7,0.8,30.66,NNW,342,3.0,3.0,45,0.00,,,0.00,Wunderground v.1.15,2013-11-11 19:20:00,
2013-11-11 13:25:00,18.9,1.5,30.66,NNW,337,3.0,3.0,46,0.00,,,0.00,Wunderground v.1.15,2013-11-11 19:25:00,
2013-11-11 13:30:00,19.2,1.8,30.66,NNW,333,2.0,5.0,46,0.00,,,0.00,Wunderground v.1.15,2013-11-11 19:30:00,
2013-11-11 13:35:00,19.4,2.0,30.66,NNW,340,2.0,5.0,46,0.00,,,0.00,Wunderground v.1.15,2013-11-11 19:35:00,
2013-11-11 13:45:00,19.7,1.3,30.65,WNW,291,3.0,3.0,44,0.00,,,0.00,Wunderground v.1.15,2013-11-11 19:45:00,
2013-11-11 13:50:00,19.6,1.2,30.66,NW,315,3.0,3.0,44,0.00,,,0.00,Wunderground v.1.15,2013-11-11 19:50:00,
2013-11-11 13:55:00,19.6,1.2,30.66,NNW,336,3.0,3.0,44,0.00,,,0.00,Wunderground v.1.15,2013-11-11 19:55:00,
2013-11-11 14:00:00,19.6,0.2,30.66,NW,318,4.0,4.0,42,0.00,,,0.00,Wunderground v.1.15,2013-11-11 20:00:00,
2013-11-11 14:10:00,19.8,0.9,30.65,NNW,333,3.0,3.0,43,0.00,,,0.00,Wunderground v.1.15,2013-11-11 20:10:00,
2013-11-11 14:15:00,20.0,0.6,30.66,NNW,335,3.0,6.0,42,0.00,,,0.00,Wunderground v.1.15,2013-11-11 20:15:00,
2013-11-11 14:20:00,19.9,1.0,30.66,North,5,3.0,6.0,43,0.00,,,0.00,Wunderground v.1.15,2013-11-11 20:20:00,
2013-11-11 14:25:00,20.2,1.2,30.66,North,9,3.0,6.0,43,0.00,,,0.00,Wunderground v.1.15,2013-11-11 20:25:00,
2013-11-11 14:35:00,20.4,0.9,30.66,NW,317,4.0,6.0,42,0.00,,,0.00,Wunderground v.1.15,2013-11-11 20:35:00,
2013-11-11 14:40:00,20.4,0.9,30.66,NNW,342,4.0,4.0,42,0.00,,,0.00,Wunderground v.1.15,2013-11-11 20:40:00,
2013-11-11 14:45:00,20.4,0.9,30.66,NNW,333,4.0,4.0,42,0.00,,,0.00,Wunderground v.1.15,2013-11-11 20:45:00,
2013-11-11 14:50:00,20.4,0.9,30.66,NW,326,3.0,3.0,42,0.00,,,0.00,Wunderground v.1.15,2013-11-11 20:50:00,
2013-11-11 14:55:00,20.6,1.6,30.67,NW,325,3.0,3.0,43,0.00,,,0.00,Wunderground v.1.15,2013-11-11 20:55:00,
2013-11-11 15:00:00,20.6,0.6,30.67,NNW,346,3.0,3.0,41,0.00,,,0.00,Wunderground v.1.15,2013-11-11 21:00:00,
2013-11-11 15:10:00,20.5,0.5,30.67,NW,316,4.0,4.0,41,0.00,,,0.00,Wunderground v.1.15,2013-11-11 21:10:00,
2013-11-11 15:15:00,20.4,0.4,30.67,NNW,340,4.0,4.0,41,0.00,,,0.00,Wunderground v.1.15,2013-11-11 21:15:00,
2013-11-11 15:20:00,20.4,0.4,30.67,North,355,4.0,4.0,41,0.00,,,0.00,Wunderground v.1.15,2013-11-11 21:20:00,
2013-11-11 15:25:00,20.5,1.0,30.68,NW,325,4.0,4.0,42,0.00,,,0.00,Wunderground v.1.15,2013-11-11 21:25:00,
2013-11-11 15:30:00,20.6,1.1,30.68,NW,313,3.0,6.0,42,0.00,,,0.00,Wunderground v.1.15,2013-11-11 21:30:00,
2013-11-11 15:35:00,20.5,1.5,30.67,NW,320,2.0,9.0,43,0.00,,,0.00,Wunderground v.1.15,2013-11-11 21:35:00,
2013-11-11 15:45:00,20.4,0.9,30.68,NNW,331,3.0,5.0,42,0.00,,,0.00,Wunderground v.1.15,2013-11-11 21:45:00,
2013-11-11 15:50:00,20.3,0.8,30.68,NW,306,3.0,3.0,42,0.00,,,0.00,Wunderground v.1.15,2013-11-11 21:50:00,
2013-11-11 15:55:00,20.2,0.2,30.68,NNW,331,4.0,6.0,41,0.00,,,0.00,Wunderground v.1.15,2013-11-11 21:55:00,
2013-11-11 16:00:00,20.1,0.6,30.68,NW,325,3.0,3.0,42,0.00,,,0.00,Wunderground v.1.15,2013-11-11 22:00:00,
2013-11-11 16:10:00,20.0,0.6,30.68,NW,311,2.0,3.0,42,0.00,,,0.00,Wunderground v.1.15,2013-11-11 22:10:00,
2013-11-11 16:15:00,20.0,0.0,30.68,WNW,300,2.0,3.0,41,0.00,,,0.00,Wunderground v.1.15,2013-11-11 22:15:00,
2013-11-11 16:20:00,19.8,0.4,30.68,NNW,333,2.0,2.0,42,0.00,,,0.00,Wunderground v.1.15,2013-11-11 22:20:00,
2013-11-11 16:25:00,19.7,0.3,30.68,NW,317,2.0,4.0,42,0.00,,,0.00,Wunderground v.1.15,2013-11-11 22:25:00,
2013-11-11 16:30:00,19.7,0.3,30.68,NW,319,2.0,6.0,42,0.00,,,0.00,Wunderground v.1.15,2013-11-11 22:30:00,
2013-11-11 16:35:00,19.6,0.2,30.68,NNW,332,2.0,6.0,42,0.00,,,0.00,Wunderground v.1.15,2013-11-11 22:35:00,
2013-11-11 16:45:00,19.3,0.4,30.68,North,360,1.0,2.0,43,0.00,,,0.00,Wunderground v.1.15,2013-11-11 22:45:00,
2013-11-11 16:50:00,19.1,0.2,30.68,NNW,344,1.0,1.0,43,0.00,,,0.00,Wunderground v.1.15,2013-11-11 22:50:00,
2013-11-11 16:55:00,18.9,0.1,30.69,NNW,330,1.0,2.0,43,0.00,,,0.00,Wunderground v.1.15,2013-11-11 22:55:00,
2013-11-11 17:00:00,18.7,-0.1,30.69,NNW,335,1.0,1.0,43,0.00,,,0.00,Wunderground v.1.15,2013-11-11 23:00:00,
2013-11-11 17:10:00,18.2,0.4,30.70,NNW,333,1.0,1.0,45,0.00,,,0.00,Wunderground v.1.15,2013-11-11 23:10:00,
2013-11-11 17:15:00,17.9,0.6,30.70,NNW,335,0.0,1.0,46,0.00,,,0.00,Wunderground v.1.15,2013-11-11 23:15:00,
2013-11-11 17:20:00,17.6,0.3,30.70,NNW,334,0.0,0.0,46,0.00,,,0.00,Wunderground v.1.15,2013-11-11 23:20:00,
2013-11-11 17:25:00,17.3,0.5,30.70,NNW,334,1.0,1.0,47,0.00,,,0.00,Wunderground v.1.15,2013-11-11 23:25:00,
2013-11-11 17:30:00,17.0,0.7,30.70,NNW,336,1.0,1.0,48,0.00,,,0.00,Wunderground v.1.15,2013-11-11 23:30:00,
2013-11-11 17:40:00,16.3,0.9,30.70,NNW,336,0.0,0.0,50,0.00,,,0.00,Wunderground v.1.15,2013-11-11 23:40:00,
2013-11-11 17:45:00,15.9,0.9,30.71,NNW,336,0.0,0.0,51,0.00,,,0.00,Wunderground v.1.15,2013-11-11 23:45:00,
2013-11-11 17:50:00,15.5,0.6,30.71,NNW,336,0.0,0.0,51,0.00,,,0.00,Wunderground v.1.15,2013-11-11 23:50:00,
2013-11-11 17:55:00,15.1,0.6,30.71,NNW,336,0.0,0.0,52,0.00,,,0.00,Wunderground v.1.15,2013-11-11 23:55:00,
2013-11-11 18:00:00,14.7,1.0,30.71,NNW,336,0.0,0.0,54,0.00,,,0.00,Wunderground v.1.15,2013-11-12 00:00:00,
2013-11-11 18:10:00,14.3,1.4,30.72,NNW,336,0.0,0.0,56,0.00,,,0.00,Wunderground v.1.15,2013-11-12 00:10:00,
2013-11-11 18:15:00,14.1,1.6,30.72,NNW,336,0.0,0.0,57,0.00,,,0.00,Wunderground v.1.15,2013-11-12 00:15:00,
2013-11-11 18:20:00,13.8,1.7,30.72,NNW,336,0.0,0.0,58,0.00,,,0.00,Wunderground v.1.15,2013-11-12 00:20:00,
2013-11-11 18:25:00,13.6,1.5,30.72,NNW,336,0.0,0.0,58,0.00,,,0.00,Wunderground v.1.15,2013-11-12 00:25:00,
2013-11-11 18:30:00,13.3,1.6,30.72,NNW,336,0.0,0.0,59,0.00,,,0.00,Wunderground v.1.15,2013-11-12 00:30:00,
2013-11-11 18:35:00,12.9,1.2,30.72,NNW,336,0.0,0.0,59,0.00,,,0.00,Wunderground v.1.15,2013-11-12 00:35:00,
2013-11-11 18:40:00,12.5,1.2,30.72,NNW,336,0.0,0.0,60,0.00,,,0.00,Wunderground v.1.15,2013-11-12 00:40:00,
2013-11-11 18:50:00,12.0,1.5,30.72,NNW,336,0.0,0.0,62,0.00,,,0.00,Wunderground v.1.15,2013-11-12 00:50:00,
2013-11-11 19:00:00,11.4,0.9,30.73,NNW,336,0.0,0.0,62,0.00,,,0.00,Wunderground v.1.15,2013-11-12 01:00:00,
2013-11-11 19:10:00,11.1,1.3,30.74,NNW,336,0.0,0.0,64,0.00,,,0.00,Wunderground v.1.15,2013-11-12 01:10:00,
2013-11-11 19:15:00,11.2,1.7,30.74,NNW,336,0.0,0.0,65,0.00,,,0.00,Wunderground v.1.15,2013-11-12 01:15:00,
2013-11-11 19:25:00,11.2,2.0,30.74,NNW,336,0.0,0.0,66,0.00,,,0.00,Wunderground v.1.15,2013-11-12 01:25:00,
2013-11-11 19:30:00,11.1,1.9,30.74,NNW,336,0.0,0.0,66,0.00,,,0.00,Wunderground v.1.15,2013-11-12 01:30:00,
2013-11-11 19:35:00,10.8,2.3,30.74,NNW,336,0.0,0.0,68,0.00,,,0.00,Wunderground v.1.15,2013-11-12 01:35:00,
2013-11-11 19:40:00,10.6,2.4,30.75,NNW,336,0.0,0.0,69,0.00,,,0.00,Wunderground v.1.15,2013-11-12 01:40:00,
2013-11-11 19:50:00,10.3,2.4,30.75,NNW,336,0.0,0.0,70,0.00,,,0.00,Wunderground v.1.15,2013-11-12 01:50:00,
2013-11-11 19:55:00,10.1,2.3,30.75,NNW,336,0.0,0.0,70,0.00,,,0.00,Wunderground v.1.15,2013-11-12 01:55:00,
2013-11-11 20:00:00,10.1,2.3,30.75,NNW,336,0.0,0.0,70,0.00,,,0.00,Wunderground v.1.15,2013-11-12 02:00:00,
2013-11-11 20:10:00,10.1,2.3,30.75,NNW,336,0.0,0.0,70,0.00,,,0.00,Wunderground v.1.15,2013-11-12 02:10:00,
2013-11-11 20:15:00,9.9,2.4,30.75,NNW,336,0.0,0.0,71,0.00,,,0.00,Wunderground v.1.15,2013-11-12 02:15:00,
2013-11-11 20:25:00,9.8,2.6,30.75,NNW,336,0.0,0.0,72,0.00,,,0.00,Wunderground v.1.15,2013-11-12 02:25:00,
2013-11-11 20:30:00,9.6,2.7,30.75,NNW,336,0.0,0.0,73,0.00,,,0.00,Wunderground v.1.15,2013-11-12 02:30:00,
2013-11-11 20:35:00,9.6,3.0,30.75,NNW,336,0.0,0.0,74,0.00,,,0.00,Wunderground v.1.15,2013-11-12 02:35:00,
2013-11-11 20:40:00,9.6,3.0,30.74,NNW,336,0.0,0.0,74,0.00,,,0.00,Wunderground v.1.15,2013-11-12 02:40:00,
2013-11-11 20:45:00,9.2,2.6,30.74,NNW,336,0.0,0.0,74,0.00,,,0.00,Wunderground v.1.15,2013-11-12 02:45:00,
2013-11-11 20:50:00,8.9,2.3,30.74,NNW,336,0.0,0.0,74,0.00,,,0.00,Wunderground v.1.15,2013-11-12 02:50:00,
2013-11-11 20:55:00,8.6,2.0,30.74,NNW,336,0.0,0.0,74,0.00,,,0.00,Wunderground v.1.15,2013-11-12 02:55:00,
2013-11-11 21:00:00,8.4,1.8,30.75,NNW,336,0.0,0.0,74,0.00,,,0.00,Wunderground v.1.15,2013-11-12 03:00:00,
2013-11-11 21:10:00,8.2,1.6,30.74,NNW,336,0.0,0.0,74,0.00,,,0.00,Wunderground v.1.15,2013-11-12 03:10:00,
2013-11-11 21:15:00,8.2,1.3,30.75,NNW,336,0.0,0.0,73,0.00,,,0.00,Wunderground v.1.15,2013-11-12 03:15:00,
2013-11-11 21:20:00,8.2,1.3,30.75,NNW,336,0.0,0.0,73,0.00,,,0.00,Wunderground v.1.15,2013-11-12 03:20:00,
2013-11-11 21:25:00,8.2,1.0,30.76,NNW,336,0.0,0.0,72,0.00,,,0.00,Wunderground v.1.15,2013-11-12 03:25:00,
2013-11-11 21:30:00,8.3,1.1,30.75,NNW,336,0.0,0.0,72,0.00,,,0.00,Wunderground v.1.15,2013-11-12 03:30:00,
2013-11-11 21:35:00,8.5,1.0,30.75,NNW,336,0.0,0.0,71,0.00,,,0.00,Wunderground v.1.15,2013-11-12 03:35:00,
2013-11-11 21:40:00,8.5,1.0,30.75,NNW,336,0.0,0.0,71,0.00,,,0.00,Wunderground v.1.15,2013-11-12 03:40:00,
2013-11-11 21:50:00,8.5,2.2,30.75,NNW,336,0.0,0.0,75,0.00,,,0.00,Wunderground v.1.15,2013-11-12 03:50:00,
2013-11-11 22:00:00,8.0,1.7,30.75,NNW,337,0.0,0.0,75,0.00,,,0.00,Wunderground v.1.15,2013-11-12 04:00:00,
2013-11-11 22:10:00,7.7,1.7,30.75,NNW,337,0.0,0.0,76,0.00,,,0.00,Wunderground v.1.15,2013-11-12 04:10:00,
2013-11-11 22:20:00,8.0,2.0,30.75,NNW,338,0.0,0.0,76,0.00,,,0.00,Wunderground v.1.15,2013-11-12 04:20:00,
2013-11-11 22:25:00,8.1,2.1,30.76,NNW,338,0.0,0.0,76,0.00,,,0.00,Wunderground v.1.15,2013-11-12 04:25:00,
2013-11-11 22:30:00,8.3,2.0,30.76,SSE,167,0.0,0.0,75,0.00,,,0.00,Wunderground v.1.15,2013-11-12 04:30:00,
2013-11-11 22:35:00,8.5,1.9,30.77,SSE,165,0.0,0.0,74,0.00,,,0.00,Wunderground v.1.15,2013-11-12 04:35:00,
2013-11-11 22:40:00,8.6,1.7,30.76,SSE,160,0.0,0.0,73,0.00,,,0.00,Wunderground v.1.15,2013-11-12 04:40:00,
2013-11-11 22:45:00,8.7,1.8,30.76,SSE,149,0.0,1.0,73,0.00,,,0.00,Wunderground v.1.15,2013-11-12 04:45:00,
2013-11-11 22:50:00,8.7,1.8,30.77,SSE,150,0.0,0.0,73,0.00,,,0.00,Wunderground v.1.15,2013-11-12 04:50:00,
2013-11-11 23:00:00,8.3,1.4,30.77,SSE,150,0.0,0.0,73,0.00,,,0.00,Wunderground v.1.15,2013-11-12 05:00:00,
2013-11-11 23:05:00,8.1,1.2,30.77,SSE,150,0.0,0.0,73,0.00,,,0.00,Wunderground v.1.15,2013-11-12 05:05:00,
2013-11-11 23:10:00,8.1,1.2,30.77,SSE,150,0.0,0.0,73,0.00,,,0.00,Wunderground v.1.15,2013-11-12 05:10:00,
2013-11-11 23:15:00,7.9,1.0,30.77,SSE,150,0.0,0.0,73,0.00,,,0.00,Wunderground v.1.15,2013-11-12 05:15:00,
2013-11-11 23:20:00,7.9,1.0,30.77,SSE,150,0.0,0.0,73,0.00,,,0.00,Wunderground v.1.15,2013-11-12 05:20:00,
2013-11-11 23:25:00,8.1,1.5,30.77,SSE,155,0.0,0.0,74,0.00,,,0.00,Wunderground v.1.15,2013-11-12 05:25:00,
2013-11-11 23:30:00,8.2,1.3,30.77,SSE,155,0.0,0.0,73,0.00,,,0.00,Wunderground v.1.15,2013-11-12 05:30:00,
2013-11-11 23:35:00,8.3,1.1,30.76,SSE,161,0.0,0.0,72,0.00,,,0.00,Wunderground v.1.15,2013-11-12 05:35:00,
2013-11-11 23:45:00,8.3,1.1,30.77,SSE,150,0.0,1.0,72,0.00,,,0.00,Wunderground v.1.15,2013-11-12 05:45:00,
2013-11-11 23:50:00,8.3,1.1,30.77,SSE,150,0.0,0.0,72,0.00,,,0.00,Wunderground v.1.15,2013-11-12 05:50:00,
2013-11-11 23:55:00,8.3,1.4,30.76,SSE,152,0.0,1.0,73,0.00,,,0.00,Wunderground v.1.15,2013-11-12 05:55:00,